Fairview Park, Ohio
Current Conditions -  °F | °C
As of 8:51 PM on Saturday 22 Nov 2014 (Local Time) from KCLE Reporting Station
Broken Clouds Broken Clouds  
Wind Chill: 40°   Ceiling: 10000
Heat Index: 47°   Visibility: 10mi
Dew Point: 35°   Wind: 17mph
Humidity: 63%   Direction: 200°SSW
Pressure: 30.04"   Gusts: 24mph
Location:  41.45°N, 81.85°W
Report Text: KCLE 230151Z 20015G21KT 10SM BKN100 08/02 A3004 RMK AO2 SLP178 T00830017 $
Loading
Personal Weather Stations






























Interactive Weather Map New forecast layout! Learn more

10-Day Weather Forecast

Advertisements
Track Severe Weather on mobile